sensor_id;sensor_type;location;lat;lon;timestamp;P1;durP1;ratioP1;P2;durP2;ratioP2
85797;SDS011;76244;53.434;14.484;2024-02-21T00:00:58;20.00;;;3.80;;
85797;SDS011;76244;53.434;14.484;2024-02-21T00:03:45;16.20;;;3.20;;
85797;SDS011;76244;53.434;14.484;2024-02-21T00:06:18;18.00;;;3.90;;
85797;SDS011;76244;53.434;14.484;2024-02-21T00:08:50;20.90;;;3.90;;
85797;SDS011;76244;53.434;14.484;2024-02-21T00:11:23;21.50;;;3.50;;
85797;SDS011;76244;53.434;14.484;2024-02-21T00:13:55;17.70;;;3.70;;
85797;SDS011;76244;53.434;14.484;2024-02-21T00:16:28;12.40;;;3.00;;
85797;SDS011;76244;53.434;14.484;2024-02-21T00:19:00;14.20;;;3.30;;
85797;SDS011;76244;53.434;14.484;2024-02-21T00:21:32;13.50;;;3.60;;
85797;SDS011;76244;53.434;14.484;2024-02-21T00:24:05;18.50;;;3.80;;
85797;SDS011;76244;53.434;14.484;2024-02-21T00:26:38;12.50;;;3.00;;
85797;SDS011;76244;53.434;14.484;2024-02-21T00:29:10;13.70;;;3.60;;
85797;SDS011;76244;53.434;14.484;2024-02-21T00:31:43;16.00;;;3.00;;
85797;SDS011;76244;53.434;14.484;2024-02-21T00:34:15;17.60;;;2.70;;
85797;SDS011;76244;53.434;14.484;2024-02-21T00:36:48;23.90;;;5.10;;
85797;SDS011;76244;53.434;14.484;2024-02-21T00:39:20;17.10;;;3.80;;
85797;SDS011;76244;53.434;14.484;2024-02-21T00:41:53;22.60;;;4.70;;
85797;SDS011;76244;53.434;14.484;2024-02-21T00:44:25;16.50;;;3.90;;
85797;SDS011;76244;53.434;14.484;2024-02-21T00:46:58;18.90;;;4.50;;
85797;SDS011;76244;53.434;14.484;2024-02-21T00:49:30;18.70;;;4.50;;
85797;SDS011;76244;53.434;14.484;2024-02-21T00:52:03;14.50;;;4.10;;
85797;SDS011;76244;53.434;14.484;2024-02-21T00:54:35;21.30;;;4.60;;
85797;SDS011;76244;53.434;14.484;2024-02-21T00:57:21;15.70;;;4.60;;
85797;SDS011;76244;53.434;14.484;2024-02-21T00:59:53;15.50;;;3.60;;
85797;SDS011;76244;53.434;14.484;2024-02-21T01:02:26;13.70;;;3.30;;
85797;SDS011;76244;53.434;14.484;2024-02-21T01:05:01;16.80;;;3.60;;
85797;SDS011;76244;53.434;14.484;2024-02-21T01:07:34;14.20;;;4.20;;
85797;SDS011;76244;53.434;14.484;2024-02-21T01:10:08;16.30;;;3.90;;
85797;SDS011;76244;53.434;14.484;2024-02-21T01:12:41;16.70;;;3.70;;
85797;SDS011;76244;53.434;14.484;2024-02-21T01:15:13;15.40;;;3.50;;
85797;SDS011;76244;53.434;14.484;2024-02-21T01:17:45;14.50;;;4.00;;
85797;SDS011;76244;53.434;14.484;2024-02-21T01:20:19;17.10;;;3.90;;
85797;SDS011;76244;53.434;14.484;2024-02-21T01:22:52;21.60;;;4.00;;
85797;SDS011;76244;53.434;14.484;2024-02-21T01:25:24;20.70;;;4.30;;
85797;SDS011;76244;53.434;14.484;2024-02-21T01:27:56;17.30;;;4.10;;
85797;SDS011;76244;53.434;14.484;2024-02-21T01:30:29;21.40;;;4.40;;
85797;SDS011;76244;53.434;14.484;2024-02-21T01:33:01;18.30;;;4.10;;
85797;SDS011;76244;53.434;14.484;2024-02-21T01:35:35;21.50;;;5.00;;
85797;SDS011;76244;53.434;14.484;2024-02-21T01:38:08;17.30;;;5.00;;
85797;SDS011;76244;53.434;14.484;2024-02-21T01:40:41;21.30;;;4.90;;
85797;SDS011;76244;53.434;14.484;2024-02-21T01:43:17;17.60;;;4.30;;
85797;SDS011;76244;53.434;14.484;2024-02-21T01:45:52;22.60;;;5.00;;
85797;SDS011;76244;53.434;14.484;2024-02-21T01:48:26;14.80;;;4.50;;
85797;SDS011;76244;53.434;14.484;2024-02-21T01:50:59;21.40;;;5.40;;
85797;SDS011;76244;53.434;14.484;2024-02-21T01:53:34;22.30;;;5.20;;
85797;SDS011;76244;53.434;14.484;2024-02-21T01:56:10;16.60;;;5.00;;
85797;SDS011;76244;53.434;14.484;2024-02-21T01:58:44;19.40;;;5.20;;
85797;SDS011;76244;53.434;14.484;2024-02-21T02:01:18;19.80;;;5.80;;
85797;SDS011;76244;53.434;14.484;2024-02-21T02:03:51;14.70;;;4.60;;
85797;SDS011;76244;53.434;14.484;2024-02-21T02:06:25;15.70;;;4.40;;
85797;SDS011;76244;53.434;14.484;2024-02-21T02:08:58;17.00;;;4.20;;
85797;SDS011;76244;53.434;14.484;2024-02-21T02:11:31;17.30;;;6.70;;
85797;SDS011;76244;53.434;14.484;2024-02-21T02:14:04;16.20;;;4.90;;
85797;SDS011;76244;53.434;14.484;2024-02-21T02:16:38;20.20;;;4.90;;
85797;SDS011;76244;53.434;14.484;2024-02-21T02:19:11;15.80;;;5.00;;
85797;SDS011;76244;53.434;14.484;2024-02-21T02:21:46;20.50;;;5.30;;
85797;SDS011;76244;53.434;14.484;2024-02-21T02:24:25;27.60;;;6.30;;
85797;SDS011;76244;53.434;14.484;2024-02-21T02:27:00;18.30;;;4.90;;
85797;SDS011;76244;53.434;14.484;2024-02-21T02:29:33;20.80;;;5.70;;
85797;SDS011;76244;53.434;14.484;2024-02-21T02:32:06;18.60;;;5.20;;
85797;SDS011;76244;53.434;14.484;2024-02-21T02:34:38;15.30;;;5.10;;
85797;SDS011;76244;53.434;14.484;2024-02-21T02:37:10;19.70;;;5.70;;
85797;SDS011;76244;53.434;14.484;2024-02-21T02:39:43;12.60;;;5.00;;
85797;SDS011;76244;53.434;14.484;2024-02-21T02:42:15;19.30;;;5.70;;
85797;SDS011;76244;53.434;14.484;2024-02-21T02:44:47;14.90;;;5.00;;
85797;SDS011;76244;53.434;14.484;2024-02-21T02:47:20;18.10;;;5.60;;
85797;SDS011;76244;53.434;14.484;2024-02-21T02:49:52;17.20;;;5.70;;
85797;SDS011;76244;53.434;14.484;2024-02-21T02:52:24;21.30;;;6.10;;
85797;SDS011;76244;53.434;14.484;2024-02-21T02:54:57;20.40;;;5.30;;
85797;SDS011;76244;53.434;14.484;2024-02-21T02:57:31;17.50;;;5.80;;
85797;SDS011;76244;53.434;14.484;2024-02-21T03:00:04;20.70;;;5.40;;
85797;SDS011;76244;53.434;14.484;2024-02-21T03:02:38;20.30;;;5.60;;
85797;SDS011;76244;53.434;14.484;2024-02-21T03:05:14;19.40;;;5.20;;
85797;SDS011;76244;53.434;14.484;2024-02-21T03:07:48;23.40;;;6.50;;
85797;SDS011;76244;53.434;14.484;2024-02-21T03:10:21;16.70;;;6.10;;
85797;SDS011;76244;53.434;14.484;2024-02-21T03:12:53;23.30;;;6.50;;
85797;SDS011;76244;53.434;14.484;2024-02-21T03:15:25;23.50;;;5.90;;
85797;SDS011;76244;53.434;14.484;2024-02-21T03:17:58;18.30;;;5.70;;
85797;SDS011;76244;53.434;14.484;2024-02-21T03:20:30;15.70;;;5.40;;
85797;SDS011;76244;53.434;14.484;2024-02-21T03:23:03;20.30;;;6.00;;
85797;SDS011;76244;53.434;14.484;2024-02-21T03:25:35;18.70;;;7.10;;
85797;SDS011;76244;53.434;14.484;2024-02-21T03:28:08;18.10;;;5.80;;
85797;SDS011;76244;53.434;14.484;2024-02-21T03:30:40;12.90;;;5.20;;
85797;SDS011;76244;53.434;14.484;2024-02-21T03:33:13;21.10;;;6.10;;
85797;SDS011;76244;53.434;14.484;2024-02-21T03:35:45;20.80;;;6.20;;
85797;SDS011;76244;53.434;14.484;2024-02-21T03:38:18;31.80;;;7.10;;
85797;SDS011;76244;53.434;14.484;2024-02-21T03:40:51;20.60;;;6.10;;
85797;SDS011;76244;53.434;14.484;2024-02-21T03:43:23;26.90;;;6.80;;
85797;SDS011;76244;53.434;14.484;2024-02-21T03:45:56;18.60;;;6.10;;
85797;SDS011;76244;53.434;14.484;2024-02-21T03:48:28;21.50;;;5.70;;
85797;SDS011;76244;53.434;14.484;2024-02-21T03:51:00;18.60;;;6.20;;
85797;SDS011;76244;53.434;14.484;2024-02-21T03:53:33;20.70;;;5.90;;
85797;SDS011;76244;53.434;14.484;2024-02-21T03:56:06;15.40;;;5.90;;
85797;SDS011;76244;53.434;14.484;2024-02-21T03:58:38;23.40;;;6.50;;
85797;SDS011;76244;53.434;14.484;2024-02-21T04:01:11;20.60;;;7.00;;
85797;SDS011;76244;53.434;14.484;2024-02-21T04:03:45;14.70;;;6.80;;
85797;SDS011;76244;53.434;14.484;2024-02-21T04:06:18;22.00;;;6.70;;
85797;SDS011;76244;53.434;14.484;2024-02-21T04:08:50;19.90;;;6.40;;
85797;SDS011;76244;53.434;14.484;2024-02-21T04:11:22;21.20;;;6.30;;
85797;SDS011;76244;53.434;14.484;2024-02-21T04:13:55;21.40;;;6.60;;
85797;SDS011;76244;53.434;14.484;2024-02-21T04:16:28;16.00;;;5.80;;
85797;SDS011;76244;53.434;14.484;2024-02-21T04:19:00;23.70;;;6.80;;
85797;SDS011;76244;53.434;14.484;2024-02-21T04:21:32;19.60;;;6.80;;
85797;SDS011;76244;53.434;14.484;2024-02-21T04:24:05;17.00;;;6.30;;
85797;SDS011;76244;53.434;14.484;2024-02-21T04:26:38;20.40;;;6.20;;
85797;SDS011;76244;53.434;14.484;2024-02-21T04:29:10;21.20;;;5.90;;
85797;SDS011;76244;53.434;14.484;2024-02-21T04:31:43;24.30;;;6.10;;
85797;SDS011;76244;53.434;14.484;2024-02-21T04:34:15;22.90;;;5.80;;
85797;SDS011;76244;53.434;14.484;2024-02-21T04:36:48;18.40;;;6.50;;
85797;SDS011;76244;53.434;14.484;2024-02-21T04:39:20;14.10;;;5.00;;
85797;SDS011;76244;53.434;14.484;2024-02-21T04:41:52;18.50;;;5.80;;
85797;SDS011;76244;53.434;14.484;2024-02-21T04:44:25;18.10;;;5.60;;
85797;SDS011;76244;53.434;14.484;2024-02-21T04:46:57;17.30;;;5.10;;
85797;SDS011;76244;53.434;14.484;2024-02-21T04:49:30;17.70;;;5.40;;
85797;SDS011;76244;53.434;14.484;2024-02-21T04:52:03;17.10;;;6.60;;
85797;SDS011;76244;53.434;14.484;2024-02-21T04:54:36;19.70;;;8.20;;
85797;SDS011;76244;53.434;14.484;2024-02-21T04:57:09;18.50;;;7.20;;
85797;SDS011;76244;53.434;14.484;2024-02-21T04:59:46;15.20;;;6.20;;
85797;SDS011;76244;53.434;14.484;2024-02-21T05:02:18;18.50;;;5.70;;
85797;SDS011;76244;53.434;14.484;2024-02-21T05:04:53;15.00;;;5.30;;
85797;SDS011;76244;53.434;14.484;2024-02-21T05:07:26;17.40;;;5.50;;
85797;SDS011;76244;53.434;14.484;2024-02-21T05:09:58;11.90;;;4.80;;
85797;SDS011;76244;53.434;14.484;2024-02-21T05:12:30;16.50;;;5.10;;
85797;SDS011;76244;53.434;14.484;2024-02-21T05:15:04;11.40;;;5.00;;
85797;SDS011;76244;53.434;14.484;2024-02-21T05:17:37;16.00;;;5.50;;
85797;SDS011;76244;53.434;14.484;2024-02-21T05:20:10;16.80;;;5.80;;
85797;SDS011;76244;53.434;14.484;2024-02-21T05:22:43;21.00;;;5.90;;
85797;SDS011;76244;53.434;14.484;2024-02-21T05:25:16;17.60;;;6.20;;
85797;SDS011;76244;53.434;14.484;2024-02-21T05:27:48;16.80;;;5.10;;
85797;SDS011;76244;53.434;14.484;2024-02-21T05:30:25;19.70;;;6.30;;
85797;SDS011;76244;53.434;14.484;2024-02-21T05:32:57;13.40;;;5.20;;
85797;SDS011;76244;53.434;14.484;2024-02-21T05:35:29;14.10;;;5.20;;
85797;SDS011;76244;53.434;14.484;2024-02-21T05:38:02;19.00;;;5.80;;
85797;SDS011;76244;53.434;14.484;2024-02-21T05:40:41;15.20;;;5.20;;
85797;SDS011;76244;53.434;14.484;2024-02-21T05:43:14;12.70;;;5.30;;
85797;SDS011;76244;53.434;14.484;2024-02-21T05:45:47;13.20;;;6.00;;
85797;SDS011;76244;53.434;14.484;2024-02-21T05:48:19;13.40;;;5.40;;
85797;SDS011;76244;53.434;14.484;2024-02-21T05:50:52;16.90;;;5.50;;
85797;SDS011;76244;53.434;14.484;2024-02-21T05:53:24;12.00;;;5.20;;
85797;SDS011;76244;53.434;14.484;2024-02-21T05:55:57;13.80;;;6.20;;
85797;SDS011;76244;53.434;14.484;2024-02-21T05:58:31;14.30;;;5.50;;
85797;SDS011;76244;53.434;14.484;2024-02-21T06:01:03;16.10;;;6.30;;
85797;SDS011;76244;53.434;14.484;2024-02-21T06:03:36;11.50;;;5.40;;
85797;SDS011;76244;53.434;14.484;2024-02-21T06:06:08;12.70;;;5.60;;
85797;SDS011;76244;53.434;14.484;2024-02-21T06:08:43;16.80;;;6.30;;
85797;SDS011;76244;53.434;14.484;2024-02-21T06:11:15;17.90;;;6.30;;
85797;SDS011;76244;53.434;14.484;2024-02-21T06:13:48;13.20;;;5.50;;
85797;SDS011;76244;53.434;14.484;2024-02-21T06:16:21;13.50;;;5.50;;
85797;SDS011;76244;53.434;14.484;2024-02-21T06:18:53;21.40;;;6.60;;
85797;SDS011;76244;53.434;14.484;2024-02-21T06:21:30;14.30;;;5.80;;
85797;SDS011;76244;53.434;14.484;2024-02-21T06:24:02;15.30;;;6.40;;
85797;SDS011;76244;53.434;14.484;2024-02-21T06:26:35;17.70;;;6.60;;
85797;SDS011;76244;53.434;14.484;2024-02-21T06:29:08;14.20;;;6.80;;
85797;SDS011;76244;53.434;14.484;2024-02-21T06:31:42;16.10;;;6.30;;
85797;SDS011;76244;53.434;14.484;2024-02-21T06:34:16;14.60;;;6.20;;
85797;SDS011;76244;53.434;14.484;2024-02-21T06:36:49;15.90;;;6.50;;
85797;SDS011;76244;53.434;14.484;2024-02-21T06:39:21;14.90;;;6.70;;
85797;SDS011;76244;53.434;14.484;2024-02-21T06:41:54;13.30;;;6.70;;
85797;SDS011;76244;53.434;14.484;2024-02-21T06:44:32;17.20;;;7.20;;
85797;SDS011;76244;53.434;14.484;2024-02-21T06:47:10;19.60;;;7.30;;
85797;SDS011;76244;53.434;14.484;2024-02-21T06:49:42;17.00;;;7.30;;
85797;SDS011;76244;53.434;14.484;2024-02-21T06:52:18;16.90;;;7.90;;
85797;SDS011;76244;53.434;14.484;2024-02-21T06:54:52;18.30;;;7.70;;
85797;SDS011;76244;53.434;14.484;2024-02-21T06:57:25;23.00;;;7.90;;
85797;SDS011;76244;53.434;14.484;2024-02-21T06:59:59;15.30;;;7.60;;
85797;SDS011;76244;53.434;14.484;2024-02-21T07:02:33;20.90;;;8.20;;
85797;SDS011;76244;53.434;14.484;2024-02-21T07:05:06;23.50;;;9.00;;
85797;SDS011;76244;53.434;14.484;2024-02-21T07:07:39;19.20;;;8.20;;
85797;SDS011;76244;53.434;14.484;2024-02-21T07:10:12;22.40;;;8.90;;
85797;SDS011;76244;53.434;14.484;2024-02-21T07:12:44;19.10;;;8.30;;
85797;SDS011;76244;53.434;14.484;2024-02-21T07:15:17;17.00;;;7.50;;
85797;SDS011;76244;53.434;14.484;2024-02-21T07:17:50;18.40;;;8.00;;
85797;SDS011;76244;53.434;14.484;2024-02-21T07:20:22;18.20;;;8.70;;
85797;SDS011;76244;53.434;14.484;2024-02-21T07:22:55;18.50;;;8.40;;
85797;SDS011;76244;53.434;14.484;2024-02-21T07:25:28;16.40;;;7.90;;
85797;SDS011;76244;53.434;14.484;2024-02-21T07:28:00;13.90;;;6.90;;
85797;SDS011;76244;53.434;14.484;2024-02-21T07:30:33;20.20;;;7.10;;
85797;SDS011;76244;53.434;14.484;2024-02-21T07:33:05;16.60;;;7.20;;
85797;SDS011;76244;53.434;14.484;2024-02-21T07:35:39;15.50;;;7.50;;
85797;SDS011;76244;53.434;14.484;2024-02-21T07:38:14;15.70;;;7.90;;
85797;SDS011;76244;53.434;14.484;2024-02-21T07:40:47;19.90;;;7.80;;
85797;SDS011;76244;53.434;14.484;2024-02-21T07:43:20;15.70;;;7.60;;
85797;SDS011;76244;53.434;14.484;2024-02-21T07:45:52;17.50;;;8.10;;
85797;SDS011;76244;53.434;14.484;2024-02-21T07:48:25;17.00;;;7.90;;
85797;SDS011;76244;53.434;14.484;2024-02-21T07:53:31;15.30;;;6.80;;
85797;SDS011;76244;53.434;14.484;2024-02-21T07:56:04;19.30;;;8.70;;
85797;SDS011;76244;53.434;14.484;2024-02-21T07:58:37;19.20;;;8.60;;
85797;SDS011;76244;53.434;14.484;2024-02-21T08:01:10;19.20;;;8.90;;
85797;SDS011;76244;53.434;14.484;2024-02-21T08:03:48;19.10;;;7.80;;
85797;SDS011;76244;53.434;14.484;2024-02-21T08:06:21;19.00;;;8.70;;
85797;SDS011;76244;53.434;14.484;2024-02-21T08:08:53;20.40;;;7.30;;
85797;SDS011;76244;53.434;14.484;2024-02-21T08:11:26;18.80;;;8.60;;
85797;SDS011;76244;53.434;14.484;2024-02-21T08:13:59;21.10;;;9.20;;
85797;SDS011;76244;53.434;14.484;2024-02-21T08:16:33;18.60;;;7.60;;
85797;SDS011;76244;53.434;14.484;2024-02-21T08:19:05;18.00;;;8.40;;
85797;SDS011;76244;53.434;14.484;2024-02-21T08:21:37;18.70;;;8.80;;
85797;SDS011;76244;53.434;14.484;2024-02-21T08:24:10;19.30;;;8.50;;
85797;SDS011;76244;53.434;14.484;2024-02-21T08:26:42;15.80;;;7.30;;
85797;SDS011;76244;53.434;14.484;2024-02-21T08:29:15;21.20;;;8.40;;
85797;SDS011;76244;53.434;14.484;2024-02-21T08:31:47;21.80;;;7.50;;
85797;SDS011;76244;53.434;14.484;2024-02-21T08:34:20;18.60;;;7.40;;
85797;SDS011;76244;53.434;14.484;2024-02-21T08:36:52;20.80;;;7.60;;
85797;SDS011;76244;53.434;14.484;2024-02-21T08:39:25;19.40;;;8.10;;
85797;SDS011;76244;53.434;14.484;2024-02-21T08:41:59;13.60;;;6.60;;
85797;SDS011;76244;53.434;14.484;2024-02-21T08:44:32;13.50;;;7.00;;
85797;SDS011;76244;53.434;14.484;2024-02-21T08:47:04;15.80;;;6.90;;
85797;SDS011;76244;53.434;14.484;2024-02-21T08:49:39;19.30;;;7.50;;
85797;SDS011;76244;53.434;14.484;2024-02-21T08:52:12;16.00;;;7.50;;
85797;SDS011;76244;53.434;14.484;2024-02-21T08:54:44;16.10;;;6.70;;
85797;SDS011;76244;53.434;14.484;2024-02-21T08:57:17;17.00;;;6.90;;
85797;SDS011;76244;53.434;14.484;2024-02-21T08:59:49;18.90;;;7.60;;
85797;SDS011;76244;53.434;14.484;2024-02-21T09:02:22;15.80;;;7.80;;
85797;SDS011;76244;53.434;14.484;2024-02-21T09:04:54;14.10;;;6.80;;
85797;SDS011;76244;53.434;14.484;2024-02-21T09:07:27;20.90;;;8.10;;
85797;SDS011;76244;53.434;14.484;2024-02-21T09:09:59;19.20;;;8.60;;
85797;SDS011;76244;53.434;14.484;2024-02-21T09:12:32;18.20;;;7.70;;
85797;SDS011;76244;53.434;14.484;2024-02-21T09:15:06;18.50;;;7.20;;
85797;SDS011;76244;53.434;14.484;2024-02-21T09:17:40;18.10;;;7.70;;
85797;SDS011;76244;53.434;14.484;2024-02-21T09:20:12;16.40;;;7.70;;
85797;SDS011;76244;53.434;14.484;2024-02-21T09:22:46;16.60;;;8.10;;
85797;SDS011;76244;53.434;14.484;2024-02-21T09:25:18;20.30;;;7.70;;
85797;SDS011;76244;53.434;14.484;2024-02-21T09:27:51;22.90;;;8.90;;
85797;SDS011;76244;53.434;14.484;2024-02-21T09:30:24;19.90;;;8.70;;
85797;SDS011;76244;53.434;14.484;2024-02-21T09:32:56;20.00;;;8.30;;
85797;SDS011;76244;53.434;14.484;2024-02-21T09:35:30;17.20;;;7.60;;
85797;SDS011;76244;53.434;14.484;2024-02-21T09:38:04;17.50;;;8.60;;
85797;SDS011;76244;53.434;14.484;2024-02-21T09:40:37;18.70;;;8.00;;
85797;SDS011;76244;53.434;14.484;2024-02-21T09:43:11;17.30;;;8.20;;
85797;SDS011;76244;53.434;14.484;2024-02-21T09:45:50;19.20;;;8.80;;
85797;SDS011;76244;53.434;14.484;2024-02-21T09:48:29;18.40;;;7.80;;
85797;SDS011;76244;53.434;14.484;2024-02-21T09:51:11;19.90;;;8.40;;
85797;SDS011;76244;53.434;14.484;2024-02-21T09:53:44;18.50;;;8.50;;
85797;SDS011;76244;53.434;14.484;2024-02-21T09:56:31;14.50;;;7.80;;
85797;SDS011;76244;53.434;14.484;2024-02-21T09:59:04;25.20;;;9.10;;
85797;SDS011;76244;53.434;14.484;2024-02-21T10:01:37;16.90;;;8.40;;
85797;SDS011;76244;53.434;14.484;2024-02-21T10:04:10;15.60;;;7.50;;
85797;SDS011;76244;53.434;14.484;2024-02-21T10:06:43;19.30;;;8.60;;
85797;SDS011;76244;53.434;14.484;2024-02-21T10:09:22;17.20;;;7.50;;
85797;SDS011;76244;53.434;14.484;2024-02-21T10:12:08;19.40;;;7.40;;
85797;SDS011;76244;53.434;14.484;2024-02-21T10:14:43;18.70;;;7.90;;
85797;SDS011;76244;53.434;14.484;2024-02-21T10:17:17;18.30;;;7.40;;
85797;SDS011;76244;53.434;14.484;2024-02-21T10:19:50;15.10;;;7.10;;
85797;SDS011;76244;53.434;14.484;2024-02-21T10:22:22;16.00;;;7.30;;
85797;SDS011;76244;53.434;14.484;2024-02-21T10:24:56;14.20;;;6.80;;
85797;SDS011;76244;53.434;14.484;2024-02-21T10:27:39;16.90;;;7.30;;
85797;SDS011;76244;53.434;14.484;2024-02-21T10:30:14;15.70;;;6.90;;
85797;SDS011;76244;53.434;14.484;2024-02-21T10:32:50;15.70;;;6.80;;
85797;SDS011;76244;53.434;14.484;2024-02-21T10:35:27;13.90;;;7.20;;
85797;SDS011;76244;53.434;14.484;2024-02-21T10:38:01;16.70;;;7.40;;
85797;SDS011;76244;53.434;14.484;2024-02-21T10:40:35;14.90;;;7.20;;
85797;SDS011;76244;53.434;14.484;2024-02-21T10:43:09;15.40;;;6.80;;
85797;SDS011;76244;53.434;14.484;2024-02-21T10:45:44;18.30;;;7.70;;
85797;SDS011;76244;53.434;14.484;2024-02-21T10:48:20;16.60;;;6.30;;
85797;SDS011;76244;53.434;14.484;2024-02-21T10:51:02;15.40;;;6.90;;
85797;SDS011;76244;53.434;14.484;2024-02-21T10:53:47;17.60;;;8.20;;
85797;SDS011;76244;53.434;14.484;2024-02-21T10:56:28;14.50;;;6.70;;
85797;SDS011;76244;53.434;14.484;2024-02-21T10:59:05;14.60;;;5.80;;
85797;SDS011;76244;53.434;14.484;2024-02-21T11:01:38;10.70;;;5.80;;
85797;SDS011;76244;53.434;14.484;2024-02-21T11:04:11;11.90;;;5.90;;
85797;SDS011;76244;53.434;14.484;2024-02-21T11:06:44;13.00;;;6.30;;
85797;SDS011;76244;53.434;14.484;2024-02-21T11:09:18;15.80;;;5.70;;
85797;SDS011;76244;53.434;14.484;2024-02-21T11:11:59;14.60;;;6.00;;
85797;SDS011;76244;53.434;14.484;2024-02-21T11:14:34;13.40;;;6.00;;
85797;SDS011;76244;53.434;14.484;2024-02-21T11:17:18;13.50;;;5.70;;
85797;SDS011;76244;53.434;14.484;2024-02-21T11:19:55;12.30;;;5.60;;
85797;SDS011;76244;53.434;14.484;2024-02-21T11:22:29;11.90;;;5.50;;
85797;SDS011;76244;53.434;14.484;2024-02-21T11:25:11;13.60;;;5.60;;
85797;SDS011;76244;53.434;14.484;2024-02-21T11:27:58;13.80;;;6.10;;
85797;SDS011;76244;53.434;14.484;2024-02-21T11:30:32;10.40;;;4.70;;
85797;SDS011;76244;53.434;14.484;2024-02-21T11:33:05;14.40;;;5.30;;
85797;SDS011;76244;53.434;14.484;2024-02-21T11:35:38;11.80;;;5.40;;
85797;SDS011;76244;53.434;14.484;2024-02-21T11:38:11;9.20;;;4.70;;
85797;SDS011;76244;53.434;14.484;2024-02-21T11:40:46;12.20;;;5.30;;
85797;SDS011;76244;53.434;14.484;2024-02-21T11:43:19;9.80;;;4.70;;
85797;SDS011;76244;53.434;14.484;2024-02-21T11:45:52;10.80;;;4.80;;
85797;SDS011;76244;53.434;14.484;2024-02-21T11:48:32;9.50;;;4.60;;
85797;SDS011;76244;53.434;14.484;2024-02-21T11:51:05;14.90;;;6.20;;
85797;SDS011;76244;53.434;14.484;2024-02-21T11:53:38;10.70;;;5.30;;
85797;SDS011;76244;53.434;14.484;2024-02-21T11:56:25;11.50;;;4.50;;
85797;SDS011;76244;53.434;14.484;2024-02-21T11:58:59;10.50;;;4.50;;
85797;SDS011;76244;53.434;14.484;2024-02-21T12:01:33;9.90;;;4.40;;
85797;SDS011;76244;53.434;14.484;2024-02-21T12:04:06;9.10;;;4.40;;
85797;SDS011;76244;53.434;14.484;2024-02-21T12:06:38;9.10;;;3.90;;
85797;SDS011;76244;53.434;14.484;2024-02-21T12:09:13;9.80;;;4.10;;
85797;SDS011;76244;53.434;14.484;2024-02-21T12:11:56;10.60;;;4.20;;
85797;SDS011;76244;53.434;14.484;2024-02-21T12:14:30;8.30;;;4.50;;
85797;SDS011;76244;53.434;14.484;2024-02-21T12:17:06;10.00;;;4.30;;
85797;SDS011;76244;53.434;14.484;2024-02-21T12:19:38;10.40;;;4.70;;
85797;SDS011;76244;53.434;14.484;2024-02-21T12:22:11;10.00;;;3.90;;
85797;SDS011;76244;53.434;14.484;2024-02-21T12:24:49;9.70;;;4.70;;
85797;SDS011;76244;53.434;14.484;2024-02-21T12:27:21;7.30;;;4.20;;
85797;SDS011;76244;53.434;14.484;2024-02-21T12:29:54;7.50;;;3.60;;
85797;SDS011;76244;53.434;14.484;2024-02-21T12:32:27;9.00;;;4.10;;
85797;SDS011;76244;53.434;14.484;2024-02-21T12:35:00;7.20;;;3.20;;
85797;SDS011;76244;53.434;14.484;2024-02-21T12:37:33;6.20;;;2.80;;
85797;SDS011;76244;53.434;14.484;2024-02-21T12:40:09;7.00;;;3.00;;
85797;SDS011;76244;53.434;14.484;2024-02-21T12:42:44;6.40;;;2.80;;
85797;SDS011;76244;53.434;14.484;2024-02-21T12:45:17;5.70;;;3.30;;
85797;SDS011;76244;53.434;14.484;2024-02-21T12:47:50;6.20;;;3.00;;
85797;SDS011;76244;53.434;14.484;2024-02-21T12:50:22;6.80;;;3.00;;
85797;SDS011;76244;53.434;14.484;2024-02-21T12:52:55;8.30;;;2.80;;
85797;SDS011;76244;53.434;14.484;2024-02-21T12:55:28;7.50;;;3.30;;
85797;SDS011;76244;53.434;14.484;2024-02-21T12:58:02;6.10;;;2.70;;
85797;SDS011;76244;53.434;14.484;2024-02-21T13:00:36;4.50;;;2.20;;
85797;SDS011;76244;53.434;14.484;2024-02-21T13:03:08;5.90;;;2.80;;
85797;SDS011;76244;53.434;14.484;2024-02-21T13:05:42;6.40;;;2.70;;
85797;SDS011;76244;53.434;14.484;2024-02-21T13:08:14;4.70;;;2.30;;
85797;SDS011;76244;53.434;14.484;2024-02-21T13:10:49;6.40;;;2.70;;
85797;SDS011;76244;53.434;14.484;2024-02-21T13:13:24;7.00;;;2.50;;
85797;SDS011;76244;53.434;14.484;2024-02-21T13:15:56;7.40;;;3.00;;
85797;SDS011;76244;53.434;14.484;2024-02-21T13:18:29;8.50;;;2.90;;
85797;SDS011;76244;53.434;14.484;2024-02-21T13:21:02;5.60;;;2.70;;
85797;SDS011;76244;53.434;14.484;2024-02-21T13:23:35;6.60;;;3.00;;
85797;SDS011;76244;53.434;14.484;2024-02-21T13:26:07;5.80;;;3.20;;
85797;SDS011;76244;53.434;14.484;2024-02-21T13:28:40;8.00;;;3.20;;
85797;SDS011;76244;53.434;14.484;2024-02-21T13:31:15;5.70;;;2.50;;
85797;SDS011;76244;53.434;14.484;2024-02-21T13:33:49;6.00;;;2.60;;
85797;SDS011;76244;53.434;14.484;2024-02-21T13:36:22;5.80;;;2.50;;
85797;SDS011;76244;53.434;14.484;2024-02-21T13:38:55;5.00;;;2.00;;
85797;SDS011;76244;53.434;14.484;2024-02-21T13:41:28;6.80;;;2.70;;
85797;SDS011;76244;53.434;14.484;2024-02-21T13:44:01;5.90;;;2.50;;
85797;SDS011;76244;53.434;14.484;2024-02-21T13:46:34;5.00;;;2.30;;
85797;SDS011;76244;53.434;14.484;2024-02-21T13:49:06;5.90;;;2.40;;
85797;SDS011;76244;53.434;14.484;2024-02-21T13:51:39;5.00;;;2.30;;
85797;SDS011;76244;53.434;14.484;2024-02-21T13:54:12;6.00;;;2.50;;
85797;SDS011;76244;53.434;14.484;2024-02-21T13:56:46;5.70;;;2.50;;
85797;SDS011;76244;53.434;14.484;2024-02-21T13:59:18;6.00;;;2.80;;
85797;SDS011;76244;53.434;14.484;2024-02-21T14:01:50;7.50;;;3.20;;
85797;SDS011;76244;53.434;14.484;2024-02-21T14:04:23;6.30;;;2.80;;
85797;SDS011;76244;53.434;14.484;2024-02-21T14:06:57;6.50;;;3.20;;
85797;SDS011;76244;53.434;14.484;2024-02-21T14:09:30;8.00;;;3.20;;
85797;SDS011;76244;53.434;14.484;2024-02-21T14:12:03;7.30;;;3.20;;
85797;SDS011;76244;53.434;14.484;2024-02-21T14:14:37;5.00;;;2.60;;
85797;SDS011;76244;53.434;14.484;2024-02-21T14:17:11;6.10;;;2.50;;
85797;SDS011;76244;53.434;14.484;2024-02-21T14:19:43;7.30;;;2.90;;
85797;SDS011;76244;53.434;14.484;2024-02-21T14:22:15;7.50;;;2.70;;
85797;SDS011;76244;53.434;14.484;2024-02-21T14:24:49;6.80;;;3.20;;
85797;SDS011;76244;53.434;14.484;2024-02-21T14:27:21;6.00;;;3.10;;
85797;SDS011;76244;53.434;14.484;2024-02-21T14:29:53;7.30;;;3.20;;
85797;SDS011;76244;53.434;14.484;2024-02-21T14:32:26;8.30;;;3.50;;
85797;SDS011;76244;53.434;14.484;2024-02-21T14:34:58;8.80;;;4.10;;
85797;SDS011;76244;53.434;14.484;2024-02-21T14:37:35;7.80;;;3.10;;
85797;SDS011;76244;53.434;14.484;2024-02-21T14:40:08;6.70;;;2.90;;
85797;SDS011;76244;53.434;14.484;2024-02-21T14:42:42;7.10;;;2.80;;
85797;SDS011;76244;53.434;14.484;2024-02-21T14:45:14;6.90;;;3.10;;
85797;SDS011;76244;53.434;14.484;2024-02-21T14:47:49;6.80;;;2.90;;
85797;SDS011;76244;53.434;14.484;2024-02-21T14:50:21;7.90;;;3.20;;
85797;SDS011;76244;53.434;14.484;2024-02-21T14:52:54;6.50;;;2.90;;
85797;SDS011;76244;53.434;14.484;2024-02-21T14:55:26;6.90;;;3.40;;
85797;SDS011;76244;53.434;14.484;2024-02-21T14:57:59;7.90;;;3.60;;
85797;SDS011;76244;53.434;14.484;2024-02-21T15:00:32;8.50;;;3.30;;
85797;SDS011;76244;53.434;14.484;2024-02-21T15:03:04;6.90;;;3.20;;